Hovedside
METAR-TAF:

METAR-TAF

Lufthavner :

Mariehamn lufthavn

Mariehamn, Finland

breddegrad: 60-07N, lengdegrad: 019-54E, høyde over havet: 6 m

Gjeldene værobservasjon

Denne rapporten ble laget for 34 minutter siden, klokken 10:20 UTC
Vind 15 kt fra Sør, skiftende mellom Sørøst og Sør-sørvest
Temperatur 17°C
Luftfuktighet 82%
Trykk 1002 hPa
Sikt 10 km eller mer
ingen skyer under 1500 m og ingen bygeskyer

METAR: EFMA 211020Z AUTO 17015KT 140V210 CAVOK 17/14 Q1002

Tid: 13:54 (10:54 UTC)

Varsel

Denne rapporten ble laget for 2 timer og 20 minutter siden, klokken 08:34 UTC
Varsel gyldig fra 21. klokken 09 UTC til 21. klokken 18 UTC
Vind 14 kt fra Sør med vindkast opp mot 24 kt
Sikt 10 km eller mer
ingen skyer under 1500 m og ingen bygeskyer

TAF: EFMA 210834Z 2109/2118 17014G24KT CAVOK

Værobservasjoner og værvarsel for over 4000 flyplasser (METAR- og TAF-rapporter).

Tilgjengelige stasjoner er representert av de røde og gule prikkene på kartet.

Hold musepekeren over prikken for å se navnet på stasjonen.

Klikk så for å se værobservasjoner og -varsler.

For å forandre kartet kan du klikke på den grønne knappen med svart kryss for å zoome inn, på den grønne knappen med strek for å zoome ut, eller på de grønne pilene for å se tilstøtende kart.


METAR-TAF: